createdAt,value
2024-02-14T00:05:16.374Z,20.4
2024-02-14T00:10:55.349Z,20.5
2024-02-14T00:16:03.412Z,20.4
2024-02-14T00:21:12.088Z,20.4
2024-02-14T00:26:50.954Z,20.4
2024-02-14T00:32:31.495Z,20.4
2024-02-14T00:37:56.992Z,20.4
2024-02-14T00:43:20.177Z,20.4
2024-02-14T00:48:45.008Z,20.4
2024-02-14T00:54:25.068Z,20.4
2024-02-14T01:00:03.848Z,20.4
2024-02-14T01:05:43.851Z,20.4
2024-02-14T01:11:23.268Z,20.4
2024-02-14T01:16:47.128Z,20.4
2024-02-14T01:22:11.760Z,20.4
2024-02-14T08:09:57.278Z,19.9
2024-02-14T08:15:39.149Z,19.9
2024-02-14T08:21:07.586Z,19.8
2024-02-14T08:26:34.928Z,19.9
2024-02-14T08:32:14.401Z,19.9
2024-02-14T08:38:01.789Z,19.8
2024-02-14T08:43:41.237Z,19.8
2024-02-14T08:49:26.534Z,19.8
2024-02-14T08:55:10.239Z,19.8
2024-02-14T09:00:59.014Z,19.8
2024-02-14T09:06:45.196Z,19.8
2024-02-14T09:12:24.474Z,19.8
2024-02-14T09:18:04.335Z,19.8
2024-02-14T09:23:45.422Z,19.8
2024-02-14T09:29:24.268Z,19.8
2024-02-14T09:35:03.215Z,19.8
2024-02-14T09:40:44.175Z,19.8
2024-02-14T09:46:27.665Z,19.8
2024-02-14T09:52:08.168Z,19.8
2024-02-14T09:57:47.659Z,19.8
2024-02-14T10:03:28.182Z,19.8
2024-02-14T10:09:20.443Z,19.7
2024-02-14T10:14:44.987Z,19.8
2024-02-14T10:20:27.356Z,19.8
2024-02-14T10:26:07.462Z,19.7
2024-02-14T10:31:52.415Z,19.7
2024-02-14T10:37:46.027Z,19.7
2024-02-14T10:43:28.065Z,19.7
2024-02-14T10:49:08.547Z,19.7
2024-02-14T10:54:47.721Z,19.7
2024-02-14T11:00:26.713Z,19.7
2024-02-14T11:05:52.708Z,19.7
2024-02-14T11:11:33.668Z,19.6
2024-02-14T11:17:12.185Z,19.6
2024-02-14T11:22:54.719Z,19.6
2024-02-14T11:28:45.791Z,19.6
2024-02-14T11:34:29.198Z,19.6
2024-02-14T11:40:08.910Z,19.6
2024-02-14T11:45:51.062Z,19.6
2024-02-14T11:51:33.447Z,19.6
2024-02-14T11:57:12.656Z,19.6
2024-02-14T12:02:53.454Z,19.6
2024-02-14T12:08:33.668Z,19.6
2024-02-14T12:14:13.437Z,19.6
2024-02-14T12:19:54.298Z,19.6
2024-02-14T12:25:33.515Z,19.6
2024-02-14T12:31:15.847Z,19.6
2024-02-14T12:37:01.069Z,19.6
2024-02-14T12:42:39.506Z,19.6
2024-02-14T12:48:18.706Z,19.6
2024-02-14T12:53:58.419Z,19.6
2024-02-14T12:59:36.729Z,19.6
2024-02-14T13:05:16.735Z,19.5
2024-02-14T13:10:57.302Z,19.5
2024-02-14T13:16:36.247Z,19.5
2024-02-14T13:22:17.857Z,19.5
2024-02-14T13:27:56.157Z,19.5
2024-02-14T13:33:19.628Z,19.5
2024-02-14T13:39:00.054Z,19.5
2024-02-14T13:44:41.329Z,19.5
2024-02-14T13:50:23.756Z,19.4
2024-02-14T13:56:03.460Z,19.4
2024-02-14T14:01:41.946Z,19.4
2024-02-14T14:07:20.748Z,19.4
2024-02-14T14:13:16.397Z,19.4
2024-02-14T14:19:00.212Z,19.4
2024-02-14T14:24:39.131Z,19.4
2024-02-14T14:30:24.005Z,19.4
2024-02-14T14:36:08.620Z,19.4
2024-02-14T14:41:50.388Z,19.4
2024-02-14T14:47:13.921Z,19.4
2024-02-14T14:52:56.753Z,19.4
2024-02-14T14:58:42.641Z,19.4
2024-02-14T15:04:22.530Z,19.4
2024-02-14T15:09:48.530Z,19.4
2024-02-14T15:15:29.702Z,19.4
2024-02-14T15:21:10.734Z,19.4
2024-02-14T15:26:52.002Z,19.4
2024-02-14T15:32:31.272Z,19.3
2024-02-14T15:38:12.226Z,19.3
2024-02-14T15:43:50.728Z,19.3
2024-02-14T15:49:14.251Z,19.3
2024-02-14T15:54:39.168Z,19.3
2024-02-14T16:00:17.836Z,19.3
2024-02-14T16:05:57.848Z,19.3
2024-02-14T16:11:36.754Z,19.3
2024-02-14T16:17:16.314Z,19.3
2024-02-14T16:23:12.160Z,19.3
2024-02-14T16:28:51.145Z,19.3
2024-02-14T16:34:30.806Z,19.3
2024-02-14T16:40:25.459Z,19.3
2024-02-14T16:46:07.192Z,19.3
2024-02-14T16:51:50.372Z,19.3
2024-02-14T16:57:32.673Z,19.3
2024-02-14T17:02:59.525Z,19.3
2024-02-14T17:08:51.303Z,19.3
2024-02-14T17:14:32.904Z,19.3
2024-02-14T17:19:59.415Z,19.3
2024-02-14T17:25:47.443Z,19.2
2024-02-14T17:31:26.030Z,19.2
2024-02-14T17:37:20.041Z,19.2
2024-02-14T17:42:42.731Z,19.2
2024-02-14T17:48:21.904Z,19.2
2024-02-14T17:54:01.573Z,19.2
2024-02-14T17:59:40.138Z,19.2
2024-02-14T18:05:20.807Z,19.2
2024-02-14T18:10:48.693Z,19.2
2024-02-14T18:16:26.974Z,19.2
2024-02-14T18:21:50.946Z,19.2
2024-02-14T18:27:31.457Z,19.1
2024-02-14T18:33:12.748Z,19.1
2024-02-14T18:38:36.992Z,19.1
2024-02-14T18:44:15.917Z,19.1
2024-02-14T18:49:55.768Z,19.1
2024-02-14T18:55:34.254Z,19.1
2024-02-14T19:01:13.083Z,19.1
2024-02-14T19:06:54.507Z,19.1
2024-02-14T19:12:33.014Z,19.1
2024-02-14T19:18:25.470Z,19.1
2024-02-14T19:24:05.118Z,19.1
2024-02-14T19:29:43.739Z,19.1
